Private Wetterstation Wechselburg
Wetterdaten: Freitag, 11.07.2014
Datum Zeit Temp. +2m Bodentemp. Temp.+5cm Temp. Wind Windchill X Diff Temp. Feuchte +2m Feuchte +5cm Sonnenschein Luftdruck Regen Wind Richtung Richtung Sonnenschein UV Taupunkt Windchill Windben
11.07.2014 00:00 12,8 C 24,0 C 14,3 C 13,0 C 13,0 C 0,2 C 88 % 92 % 0 % 1008,7 hPa 0,0 l/m 0,0 km/h (0 Bft) NW 315 0 min 0,0 UV-I 10,9 C 13,0 C 0,0 km/h (0 Bft)
11.07.2014 00:05 12,8 C 24,0 C 14,3 C 13,0 C 13,0 C 0,2 C 88 % 92 % 0 % 1008,7 hPa 0,0 l/m 0,0 km/h (0 Bft) W 270 0 min 0,0 UV-I 10,9 C 13,0 C 0,0 km/h (0 Bft)
11.07.2014 00:10 12,7 C 24,0 C 14,3 C 13,0 C 13,0 C 0,3 C 88 % 92 % 0 % 1008,7 hPa 0,0 l/m 0,0 km/h (0 Bft) W-SW 247 0 min 0,0 UV-I 10,8 C 13,0 C 0,0 km/h (0 Bft)
11.07.2014 00:15 12,7 C 24,0 C 14,3 C 13,1 C 13,1 C 0,4 C 88 % 92 % 0 % 1008,7 hPa 0,0 l/m 0,0 km/h (0 Bft) NW 315 0 min 0,0 UV-I 10,8 C 13,1 C 0,0 km/h (0 Bft)
11.07.2014 00:20 12,7 C 24,0 C 14,2 C 13,1 C 13,1 C 0,4 C 88 % 92 % 0 % 1008,7 hPa 0,0 l/m 0,0 km/h (0 Bft) N 360 0 min 0,0 UV-I 10,8 C 13,1 C 0,0 km/h (0 Bft)
11.07.2014 00:25 12,7 C 24,0 C 14,2 C 13,1 C 13,1 C 0,4 C 88 % 92 % 0 % 1008,7 hPa 0,0 l/m 0,0 km/h (0 Bft) N 360 0 min 0,0 UV-I 10,8 C 13,1 C 0,0 km/h (0 Bft)
11.07.2014 00:30 12,7 C 24,0 C 14,3 C 13,1 C 13,1 C 0,4 C 88 % 92 % 0 % 1008,7 hPa 0,0 l/m 0,0 km/h (0 Bft) W-SW 247 0 min 0,0 UV-I 10,8 C 13,1 C 0,0 km/h (0 Bft)
11.07.2014 00:35 12,7 C 24,0 C 14,3 C 13,0 C 13,0 C 0,3 C 88 % 92 % 0 % 1008,6 hPa 0,0 l/m 0,0 km/h (0 Bft) W-SW 247 0 min 0,0 UV-I 10,8 C 13,0 C 0,0 km/h (0 Bft)
11.07.2014 00:40 12,7 C 24,0 C 14,1 C 13,0 C 13,0 C 0,3 C 88 % 92 % 0 % 1008,6 hPa 0,0 l/m 0,0 km/h (0 Bft) NO 45 0 min 0,0 UV-I 10,8 C 13,0 C 0,0 km/h (0 Bft)
11.07.2014 00:45 12,6 C 24,0 C 14,0 C 12,9 C 12,9 C 0,3 C 88 % 92 % 0 % 1008,6 hPa 0,0 l/m 0,0 km/h (0 Bft) O-SO 112 0 min 0,0 UV-I 10,7 C 12,9 C 0,0 km/h (0 Bft)
11.07.2014 00:50 12,5 C 24,0 C 14,0 C 12,7 C 12,7 C 0,2 C 88 % 92 % 0 % 1008,6 hPa 0,0 l/m 0,0 km/h (0 Bft) O-NO 67 0 min 0,0 UV-I 10,6 C 12,7 C 0,0 km/h (0 Bft)
11.07.2014 00:55 12,5 C 24,0 C 13,9 C 12,6 C 12,6 C 0,1 C 88 % 92 % 0 % 1008,8 hPa 0,0 l/m 0,0 km/h (0 Bft) O-NO 67 0 min 0,0 UV-I 10,6 C 12,6 C 0,0 km/h (0 Bft)
11.07.2014 01:00 12,4 C 24,0 C 13,7 C 12,4 C 12,4 C 0,0 C 88 % 92 % 0 % 1008,8 hPa 0,0 l/m 0,0 km/h (0 Bft) NO 45 0 min 0,0 UV-I 10,5 C 12,4 C 0,0 km/h (0 Bft)
11.07.2014 01:05 12,3 C 24,0 C 13,6 C 12,3 C 12,3 C 0,0 C 88 % 92 % 0 % 1008,8 hPa 0,0 l/m 0,0 km/h (0 Bft) N 360 0 min 0,0 UV-I 10,4 C 12,3 C 0,0 km/h (0 Bft)
11.07.2014 01:10 12,2 C 24,0 C 13,6 C 12,2 C 12,2 C 0,0 C 88 % 92 % 0 % 1008,8 hPa 0,0 l/m 0,0 km/h (0 Bft) O-SO 112 0 min 0,0 UV-I 10,3 C 12,2 C 0,0 km/h (0 Bft)
11.07.2014 01:15 12,3 C 24,0 C 13,6 C 12,2 C 12,1 C 0,0 C 88 % 92 % 0 % 1009,0 hPa 0,0 l/m 0,0 km/h (0 Bft) N-NW 337 0 min 0,0 UV-I 10,4 C 12,1 C 0,0 km/h (0 Bft)
11.07.2014 01:20 12,1 C 24,0 C 13,5 C 12,1 C 12,0 C 0,0 C 88 % 92 % 0 % 1009,0 hPa 0,0 l/m 0,0 km/h (0 Bft) NO 45 0 min 0,0 UV-I 10,2 C 12,0 C 0,0 km/h (0 Bft)
11.07.2014 01:25 12,0 C 24,0 C 13,5 C 12,0 C 12,0 C 0,0 C 88 % 92 % 0 % 1009,0 hPa 0,0 l/m 0,0 km/h (0 Bft) O-NO 67 0 min 0,0 UV-I 10,1 C 12,0 C 0,0 km/h (0 Bft)
11.07.2014 01:30 12,0 C 24,0 C 13,4 C 12,0 C 11,9 C 0,0 C 89 % 92 % 0 % 1009,0 hPa 0,0 l/m 0,0 km/h (0 Bft) W-NW 292 0 min 0,0 UV-I 10,2 C 11,9 C 0,0 km/h (0 Bft)
11.07.2014 01:35 12,0 C 24,0 C 13,4 C 12,0 C 11,9 C 0,0 C 89 % 92 % 0 % 1009,1 hPa 0,0 l/m 0,0 km/h (0 Bft) N-NW 337 0 min 0,0 UV-I 10,2 C 11,9 C 0,0 km/h (0 Bft)
11.07.2014 01:40 11,8 C 24,0 C 13,3 C 11,8 C 11,8 C 0,0 C 88 % 92 % 0 % 1009,1 hPa 0,0 l/m 0,0 km/h (0 Bft) O 90 0 min 0,0 UV-I 9,9 C 11,8 C 0,0 km/h (0 Bft)
11.07.2014 01:45 11,9 C 24,0 C 13,2 C 11,9 C 11,8 C 0,0 C 88 % 92 % 0 % 1009,1 hPa 0,0 l/m 0,0 km/h (0 Bft) O 90 0 min 0,0 UV-I 10,0 C 11,8 C 0,0 km/h (0 Bft)
11.07.2014 01:50 11,7 C 24,0 C 13,2 C 11,7 C 11,7 C 0,0 C 89 % 93 % 0 % 1009,1 hPa 0,0 l/m 0,0 km/h (0 Bft) O-SO 112 0 min 0,0 UV-I 9,9 C 11,7 C 0,0 km/h (0 Bft)
11.07.2014 01:55 11,7 C 24,0 C 13,2 C 11,7 C 11,7 C 0,0 C 89 % 93 % 0 % 1009,3 hPa 0,0 l/m 0,0 km/h (0 Bft) NO 45 0 min 0,0 UV-I 9,9 C 11,7 C 0,0 km/h (0 Bft)
11.07.2014 02:00 11,7 C 24,0 C 13,1 C 11,7 C 11,7 C 0,0 C 89 % 93 % 0 % 1009,3 hPa 0,0 l/m 0,0 km/h (0 Bft) NW 315 0 min 0,0 UV-I 9,9 C 11,7 C 0,0 km/h (0 Bft)
11.07.2014 02:05 11,6 C 24,0 C 13,0 C 11,6 C 11,6 C 0,0 C 89 % 93 % 0 % 1009,3 hPa 0,0 l/m 0,0 km/h (0 Bft) SO 135 0 min 0,0 UV-I 9,8 C 11,6 C 0,0 km/h (0 Bft)
11.07.2014 02:10 11,5 C 24,0 C 12,9 C 11,5 C 11,5 C 0,0 C 89 % 93 % 0 % 1009,3 hPa 0,0 l/m 0,0 km/h (0 Bft) NW 315 0 min 0,0 UV-I 9,8 C 11,5 C 0,0 km/h (0 Bft)
11.07.2014 02:15 11,5 C 24,0 C 12,9 C 11,5 C 11,5 C 0,0 C 89 % 93 % 0 % 1009,5 hPa 0,0 l/m 0,0 km/h (0 Bft) N-NW 337 0 min 0,0 UV-I 9,8 C 11,5 C 0,0 km/h (0 Bft)
11.07.2014 02:20 11,5 C 24,0 C 12,8 C 11,5 C 11,4 C 0,0 C 89 % 93 % 0 % 1009,5 hPa 0,0 l/m 0,0 km/h (0 Bft) NW 315 0 min 0,0 UV-I 9,8 C 11,4 C 0,0 km/h (0 Bft)
11.07.2014 02:25 11,3 C 24,0 C 12,8 C 11,4 C 11,4 C 0,1 C 89 % 93 % 0 % 1009,5 hPa 0,0 l/m 0,0 km/h (0 Bft) NW 315 0 min 0,0 UV-I 9,6 C 11,4 C 0,0 km/h (0 Bft)
11.07.2014 02:30 11,3 C 24,0 C 12,8 C 11,3 C 11,2 C 0,0 C 89 % 93 % 0 % 1009,5 hPa 0,0 l/m 0,0 km/h (0 Bft) S 180 0 min 0,0 UV-I 9,6 C 11,2 C 0,0 km/h (0 Bft)
11.07.2014 02:35 11,3 C 24,0 C 12,8 C 11,3 C 11,2 C 0,0 C 89 % 93 % 0 % 1009,5 hPa 0,0 l/m 0,0 km/h (0 Bft) O-NO 67 0 min 0,0 UV-I 9,6 C 11,2 C 0,0 km/h (0 Bft)
11.07.2014 02:40 11,1 C 24,0 C 12,7 C 11,2 C 11,2 C 0,1 C 89 % 93 % 0 % 1009,5 hPa 0,0 l/m 0,0 km/h (0 Bft) O-NO 67 0 min 0,0 UV-I 9,4 C 11,2 C 0,0 km/h (0 Bft)
11.07.2014 02:45 11,1 C 24,0 C 12,7 C 11,2 C 11,2 C 0,1 C 89 % 93 % 0 % 1009,5 hPa 0,0 l/m 0,0 km/h (0 Bft) O-NO 67 0 min 0,0 UV-I 9,4 C 11,2 C 0,0 km/h (0 Bft)
11.07.2014 02:50 11,0 C 24,0 C 12,7 C 11,2 C 11,2 C 0,2 C 89 % 93 % 0 % 1009,5 hPa 0,0 l/m 0,2 km/h (0 Bft) NW 315 0 min 0,0 UV-I 9,3 C 11,2 C 1,8 km/h (1 Bft)
11.07.2014 02:55 11,1 C 24,0 C 12,7 C 11,2 C 11,2 C 0,1 C 89 % 93 % 0 % 1009,4 hPa 0,0 l/m 0,2 km/h (0 Bft) N-NO 22 0 min 0,0 UV-I 9,4 C 11,2 C 0,0 km/h (0 Bft)
11.07.2014 03:00 11,0 C 24,0 C 12,7 C 11,2 C 11,2 C 0,2 C 89 % 93 % 0 % 1009,4 hPa 0,0 l/m 0,0 km/h (0 Bft) N-NO 22 0 min 0,0 UV-I 9,3 C 11,2 C 0,0 km/h (0 Bft)
11.07.2014 03:05 10,9 C 24,0 C 12,5 C 11,1 C 11,1 C 0,2 C 89 % 93 % 0 % 1009,4 hPa 0,0 l/m 0,0 km/h (0 Bft) W 270 0 min 0,0 UV-I 9,2 C 11,1 C 0,0 km/h (0 Bft)
11.07.2014 03:10 10,8 C 24,0 C 12,5 C 11,0 C 11,0 C 0,2 C 89 % 93 % 0 % 1009,4 hPa 0,0 l/m 0,0 km/h (0 Bft) NO 45 0 min 0,0 UV-I 9,1 C 11,0 C 0,0 km/h (0 Bft)
11.07.2014 03:15 10,8 C 24,0 C 12,5 C 11,0 C 11,0 C 0,2 C 89 % 93 % 0 % 1009,4 hPa 0,0 l/m 0,0 km/h (0 Bft) N 360 0 min 0,0 UV-I 9,1 C 11,0 C 0,0 km/h (0 Bft)
11.07.2014 03:20 10,7 C 24,0 C 12,5 C 10,8 C 10,8 C 0,1 C 89 % 93 % 0 % 1009,4 hPa 0,0 l/m 0,2 km/h (0 Bft) W-SW 247 0 min 0,0 UV-I 9,0 C 10,8 C 1,8 km/h (1 Bft)
11.07.2014 03:25 10,7 C 24,0 C 12,4 C 10,8 C 10,8 C 0,1 C 89 % 93 % 0 % 1009,4 hPa 0,0 l/m 0,2 km/h (0 Bft) N-NW 337 0 min 0,0 UV-I 9,0 C 10,8 C 0,0 km/h (0 Bft)
11.07.2014 03:30 10,6 C 24,0 C 12,4 C 10,8 C 10,8 C 0,2 C 89 % 93 % 0 % 1009,4 hPa 0,0 l/m 0,2 km/h (0 Bft) S 180 0 min 0,0 UV-I 8,9 C 10,8 C 0,0 km/h (0 Bft)
11.07.2014 03:35 10,6 C 24,0 C 12,3 C 10,8 C 10,8 C 0,2 C 90 % 93 % 0 % 1009,5 hPa 0,0 l/m 0,0 km/h (0 Bft) SW 225 0 min 0,0 UV-I 9,0 C 10,8 C 0,0 km/h (0 Bft)
11.07.2014 03:40 10,6 C 24,0 C 12,2 C 10,7 C 10,7 C 0,1 C 90 % 92 % 0 % 1009,5 hPa 0,0 l/m 0,0 km/h (0 Bft) O-NO 67 0 min 0,0 UV-I 9,0 C 10,7 C 0,0 km/h (0 Bft)
11.07.2014 03:45 10,5 C 24,0 C 12,2 C 10,7 C 10,7 C 0,2 C 90 % 92 % 0 % 1009,5 hPa 0,0 l/m 0,0 km/h (0 Bft) S-SO 157 0 min 0,0 UV-I 8,9 C 10,7 C 0,0 km/h (0 Bft)
11.07.2014 03:50 10,5 C 24,0 C 12,3 C 10,8 C 10,8 C 0,3 C 90 % 93 % 0 % 1009,5 hPa 0,0 l/m 0,0 km/h (0 Bft) S-SO 157 0 min 0,0 UV-I 8,9 C 10,8 C 0,0 km/h (0 Bft)
11.07.2014 03:55 10,5 C 24,0 C 12,3 C 10,9 C 10,9 C 0,4 C 90 % 93 % 0 % 1009,6 hPa 0,0 l/m 0,0 km/h (0 Bft) W-NW 292 0 min 0,0 UV-I 8,9 C 10,9 C 0,0 km/h (0 Bft)
11.07.2014 04:00 10,5 C 24,0 C 12,4 C 11,0 C 11,0 C 0,5 C 90 % 93 % 0 % 1009,6 hPa 0,0 l/m 0,0 km/h (0 Bft) S-SW 202 0 min 0,0 UV-I 8,9 C 11,0 C 0,0 km/h (0 Bft)
11.07.2014 04:05 10,5 C 24,0 C 12,4 C 11,0 C 11,0 C 0,5 C 90 % 93 % 0 % 1009,6 hPa 0,0 l/m 0,0 km/h (0 Bft) S-SW 202 0 min 0,0 UV-I 8,9 C 11,0 C 0,0 km/h (0 Bft)
11.07.2014 04:10 10,5 C 24,0 C 12,4 C 11,0 C 11,0 C 0,5 C 90 % 93 % 0 % 1009,6 hPa 0,0 l/m 0,0 km/h (0 Bft) S 180 0 min 0,0 UV-I 8,9 C 11,0 C 0,0 km/h (0 Bft)
11.07.2014 04:15 10,5 C 24,0 C 12,4 C 11,0 C 11,0 C 0,5 C 90 % 93 % 0 % 1009,6 hPa 0,0 l/m 0,2 km/h (0 Bft) W 270 0 min 0,0 UV-I 8,9 C 11,0 C 2,1 km/h (1 Bft)
11.07.2014 04:20 10,5 C 24,0 C 12,3 C 10,9 C 10,9 C 0,4 C 90 % 93 % 0 % 1009,6 hPa 0,0 l/m 0,2 km/h (0 Bft) SW 225 0 min 0,0 UV-I 8,9 C 10,9 C 2,4 km/h (1 Bft)
11.07.2014 04:25 10,5 C 24,0 C 12,3 C 10,8 C 10,8 C 0,3 C 90 % 93 % 0 % 1009,6 hPa 0,0 l/m 0,2 km/h (0 Bft) SW 225 0 min 0,0 UV-I 8,9 C 10,8 C 0,0 km/h (0 Bft)
11.07.2014 04:30 10,4 C 24,0 C 12,3 C 10,8 C 10,8 C 0,4 C 90 % 93 % 0 % 1009,6 hPa 0,0 l/m 0,0 km/h (0 Bft) W-SW 247 0 min 0,0 UV-I 8,8 C 10,8 C 0,0 km/h (0 Bft)
11.07.2014 04:35 10,4 C 24,0 C 12,2 C 10,7 C 10,7 C 0,3 C 90 % 93 % 0 % 1009,6 hPa 0,0 l/m 0,0 km/h (0 Bft) S-SW 202 0 min 0,0 UV-I 8,8 C 10,7 C 0,0 km/h (0 Bft)
11.07.2014 04:40 10,4 C 24,0 C 12,3 C 10,6 C 10,6 C 0,2 C 90 % 93 % 0 % 1009,6 hPa 0,0 l/m 0,0 km/h (0 Bft) SW 225 0 min 0,0 UV-I 8,8 C 10,6 C 0,0 km/h (0 Bft)
11.07.2014 04:45 10,3 C 24,0 C 12,2 C 10,6 C 10,6 C 0,3 C 90 % 93 % 0 % 1009,6 hPa 0,0 l/m 0,0 km/h (0 Bft) S-SW 202 0 min 0,0 UV-I 8,7 C 10,6 C 0,0 km/h (0 Bft)
11.07.2014 04:50 10,2 C 24,0 C 12,1 C 10,6 C 10,6 C 0,4 C 90 % 93 % 0 % 1009,6 hPa 0,0 l/m 0,0 km/h (0 Bft) O-NO 67 0 min 0,0 UV-I 8,6 C 10,6 C 0,0 km/h (0 Bft)
11.07.2014 04:55 10,2 C 24,0 C 12,1 C 10,6 C 10,6 C 0,4 C 90 % 93 % 0 % 1009,3 hPa 0,0 l/m 0,0 km/h (0 Bft) S-SW 202 0 min 0,0 UV-I 8,6 C 10,6 C 0,0 km/h (0 Bft)
11.07.2014 05:00 10,3 C 24,0 C 12,1 C 10,6 C 10,6 C 0,3 C 90 % 93 % 0 % 1009,3 hPa 0,0 l/m 0,0 km/h (0 Bft) W-SW 247 0 min 0,0 UV-I 8,7 C 10,6 C 0,0 km/h (0 Bft)
11.07.2014 05:05 10,3 C 24,0 C 12,1 C 10,6 C 10,6 C 0,3 C 90 % 93 % 0 % 1009,3 hPa 0,0 l/m 0,0 km/h (0 Bft) SW 225 0 min 0,0 UV-I 8,7 C 10,6 C 0,0 km/h (0 Bft)
11.07.2014 05:10 10,2 C 24,0 C 12,1 C 10,6 C 10,6 C 0,4 C 90 % 93 % 0 % 1009,3 hPa 0,0 l/m 0,0 km/h (0 Bft) S-SW 202 0 min 0,0 UV-I 8,6 C 10,6 C 0,0 km/h (0 Bft)
11.07.2014 05:15 10,2 C 24,0 C 12,0 C 10,6 C 10,6 C 0,4 C 91 % 93 % 0 % 1009,2 hPa 0,0 l/m 0,0 km/h (0 Bft) SW 225 0 min 0,0 UV-I 8,8 C 10,6 C 0,0 km/h (0 Bft)
11.07.2014 05:20 10,3 C 24,0 C 12,0 C 10,6 C 10,6 C 0,3 C 91 % 93 % 0 % 1009,2 hPa 0,0 l/m 0,0 km/h (0 Bft) N-NO 22 0 min 0,0 UV-I 8,9 C 10,6 C 0,0 km/h (0 Bft)
11.07.2014 05:25 10,3 C 24,0 C 12,0 C 10,6 C 10,6 C 0,3 C 91 % 93 % 8 % 1009,2 hPa 0,0 l/m 0,0 km/h (0 Bft) O-SO 112 5 min 0,0 UV-I 8,9 C 10,6 C 0,0 km/h (0 Bft)
11.07.2014 05:30 10,3 C 24,0 C 12,1 C 10,6 C 10,6 C 0,3 C 91 % 93 % 8 % 1009,2 hPa 0,0 l/m 0,0 km/h (0 Bft) S 180 0 min 0,0 UV-I 8,9 C 10,6 C 0,0 km/h (0 Bft)
11.07.2014 05:35 10,2 C 24,0 C 12,3 C 10,7 C 10,7 C 0,5 C 91 % 93 % 13 % 1009,1 hPa 0,0 l/m 0,0 km/h (0 Bft) S-SW 202 5 min 0,0 UV-I 8,8 C 10,7 C 0,0 km/h (0 Bft)
11.07.2014 05:40 10,2 C 24,0 C 12,3 C 10,8 C 10,8 C 0,6 C 91 % 93 % 16 % 1009,1 hPa 0,0 l/m 0,0 km/h (0 Bft) SO 135 5 min 0,0 UV-I 8,8 C 10,8 C 0,0 km/h (0 Bft)
11.07.2014 05:45 10,3 C 24,0 C 12,2 C 10,8 C 10,8 C 0,5 C 91 % 93 % 13 % 1009,1 hPa 0,0 l/m 0,0 km/h (0 Bft) W 270 0 min 0,0 UV-I 8,9 C 10,8 C 0,0 km/h (0 Bft)
11.07.2014 05:50 10,2 C 24,0 C 12,2 C 10,8 C 10,8 C 0,6 C 91 % 93 % 16 % 1009,1 hPa 0,0 l/m 0,0 km/h (0 Bft) NW 315 0 min 0,0 UV-I 8,8 C 10,8 C 0,0 km/h (0 Bft)
11.07.2014 05:55 10,3 C 24,0 C 12,1 C 10,8 C 10,8 C 0,5 C 91 % 93 % 13 % 1009,2 hPa 0,0 l/m 0,0 km/h (0 Bft) S-SO 157 0 min 0,0 UV-I 8,9 C 10,8 C 0,0 km/h (0 Bft)
11.07.2014 06:00 10,3 C 24,0 C 12,2 C 10,8 C 10,8 C 0,5 C 91 % 93 % 13 % 1009,2 hPa 0,0 l/m 0,0 km/h (0 Bft) W 270 0 min 0,0 UV-I 8,9 C 10,8 C 0,0 km/h (0 Bft)
11.07.2014 06:05 10,4 C 24,0 C 12,1 C 10,9 C 10,9 C 0,5 C 91 % 93 % 13 % 1009,2 hPa 0,0 l/m 0,0 km/h (0 Bft) S 180 0 min 0,0 UV-I 9,0 C 10,9 C 0,0 km/h (0 Bft)
11.07.2014 06:10 10,4 C 24,0 C 12,3 C 10,9 C 10,9 C 0,5 C 91 % 93 % 13 % 1009,2 hPa 0,0 l/m 0,0 km/h (0 Bft) O-SO 112 0 min 0,0 UV-I 9,0 C 10,9 C 0,0 km/h (0 Bft)
11.07.2014 06:15 10,4 C 24,0 C 12,2 C 11,0 C 11,0 C 0,6 C 91 % 93 % 16 % 1009,4 hPa 0,0 l/m 0,0 km/h (0 Bft) O-NO 67 0 min 0,0 UV-I 9,0 C 11,0 C 0,0 km/h (0 Bft)
11.07.2014 06:20 10,4 C 24,0 C 12,3 C 11,0 C 11,0 C 0,6 C 91 % 93 % 16 % 1009,4 hPa 0,0 l/m 0,0 km/h (0 Bft) O-NO 67 0 min 0,0 UV-I 9,0 C 11,0 C 0,0 km/h (0 Bft)
11.07.2014 06:25 10,4 C 24,0 C 12,4 C 11,1 C 11,1 C 0,7 C 91 % 93 % 18 % 1009,4 hPa 0,0 l/m 0,0 km/h (0 Bft) O-NO 67 0 min 0,0 UV-I 9,0 C 11,1 C 0,0 km/h (0 Bft)
11.07.2014 06:30 10,5 C 24,0 C 12,3 C 11,2 C 11,2 C 0,7 C 91 % 93 % 18 % 1009,4 hPa 0,0 l/m 0,0 km/h (0 Bft) N-NW 337 0 min 0,0 UV-I 9,1 C 11,2 C 0,0 km/h (0 Bft)
11.07.2014 06:35 10,5 C 24,0 C 12,3 C 11,4 C 11,4 C 0,9 C 91 % 93 % 24 % 1009,6 hPa 0,0 l/m 0,0 km/h (0 Bft) S 180 0 min 0,0 UV-I 9,1 C 11,4 C 0,0 km/h (0 Bft)
11.07.2014 06:40 10,7 C 24,0 C 12,4 C 11,6 C 11,6 C 0,9 C 91 % 93 % 24 % 1009,6 hPa 0,0 l/m 0,0 km/h (0 Bft) W-NW 292 0 min 0,0 UV-I 9,3 C 11,6 C 0,0 km/h (0 Bft)
11.07.2014 06:45 10,6 C 24,0 C 12,4 C 11,7 C 11,7 C 1,1 C 91 % 93 % 29 % 1009,6 hPa 0,0 l/m 0,0 km/h (0 Bft) W-SW 247 0 min 0,0 UV-I 9,2 C 11,7 C 0,0 km/h (0 Bft)
11.07.2014 06:50 10,7 C 24,0 C 12,7 C 11,8 C 11,8 C 1,1 C 91 % 93 % 29 % 1009,6 hPa 0,0 l/m 0,0 km/h (0 Bft) SW 225 0 min 0,0 UV-I 9,3 C 11,8 C 0,0 km/h (0 Bft)
11.07.2014 06:55 10,8 C 24,0 C 12,7 C 12,1 C 12,1 C 1,3 C 91 % 93 % 34 % 1009,4 hPa 0,0 l/m 0,0 km/h (0 Bft) SW 225 0 min 0,0 UV-I 9,4 C 12,1 C 0,0 km/h (0 Bft)
11.07.2014 07:00 10,9 C 24,0 C 12,9 C 12,3 C 12,3 C 1,4 C 91 % 93 % 37 % 1009,4 hPa 0,0 l/m 0,0 km/h (0 Bft) SW 225 0 min 0,0 UV-I 9,5 C 12,3 C 0,0 km/h (0 Bft)
11.07.2014 07:05 11,0 C 24,0 C 12,9 C 12,4 C 12,4 C 1,4 C 91 % 93 % 37 % 1009,4 hPa 0,0 l/m 0,0 km/h (0 Bft) S-SW 202 0 min 0,0 UV-I 9,6 C 12,4 C 0,0 km/h (0 Bft)
11.07.2014 07:10 11,1 C 24,0 C 13,1 C 12,6 C 12,6 C 1,5 C 92 % 93 % 39 % 1009,4 hPa 0,0 l/m 0,2 km/h (0 Bft) N-NW 337 0 min 0,0 UV-I 9,8 C 12,6 C 0,0 km/h (0 Bft)
11.07.2014 07:15 11,2 C 24,0 C 13,2 C 12,7 C 12,7 C 1,5 C 92 % 93 % 39 % 1009,7 hPa 0,0 l/m 0,2 km/h (0 Bft) SO 135 0 min 0,0 UV-I 9,9 C 12,7 C 0,0 km/h (0 Bft)
11.07.2014 07:20 11,5 C 24,0 C 13,5 C 13,7 C 13,7 C 2,2 C 92 % 93 % 58 % 1009,7 hPa 0,0 l/m 0,2 km/h (0 Bft) SW 225 0 min 0,0 UV-I 10,2 C 13,7 C 0,0 km/h (0 Bft)
11.07.2014 07:25 11,5 C 24,0 C 13,7 C 14,8 C 14,8 C 3,3 C 92 % 93 % 87 % 1009,7 hPa 0,0 l/m 0,2 km/h (0 Bft) SW 225 5 min 0,0 UV-I 10,2 C 14,8 C 0,0 km/h (0 Bft)
11.07.2014 07:30 11,8 C 24,0 C 13,9 C 14,8 C 14,8 C 3,0 C 92 % 93 % 79 % 1009,7 hPa 0,0 l/m 0,2 km/h (0 Bft) W 270 0 min 0,0 UV-I 10,5 C 14,8 C 0,0 km/h (0 Bft)
11.07.2014 07:35 11,9 C 24,0 C 13,9 C 14,5 C 14,5 C 2,6 C 92 % 93 % 68 % 1009,9 hPa 0,0 l/m 0,2 km/h (0 Bft) W-SW 247 0 min 0,0 UV-I 10,6 C 14,5 C 0,0 km/h (0 Bft)
11.07.2014 07:40 12,0 C 24,0 C 14,4 C 14,9 C 14,9 C 2,9 C 92 % 93 % 76 % 1009,9 hPa 0,0 l/m 1,1 km/h (1 Bft) W-NW 292 0 min 0,0 UV-I 10,7 C 14,9 C 5,3 km/h (1 Bft)
11.07.2014 07:45 12,3 C 24,0 C 14,7 C 16,4 C 16,4 C 4,1 C 93 % 93 % 100 % 1009,9 hPa 0,0 l/m 1,3 km/h (1 Bft) O 90 5 min 0,0 UV-I 11,2 C 16,4 C 0,0 km/h (0 Bft)
11.07.2014 07:50 12,7 C 24,0 C 15,1 C 18,0 C 18,0 C 5,3 C 93 % 93 % 100 % 1009,9 hPa 0,0 l/m 1,0 km/h (0 Bft) SW 225 5 min 0,0 UV-I 11,6 C 18,0 C 2,3 km/h (1 Bft)
11.07.2014 07:55 12,7 C 24,0 C 15,1 C 18,1 C 18,1 C 5,4 C 93 % 93 % 100 % 1010,2 hPa 0,0 l/m 0,8 km/h (0 Bft) S-SW 202 5 min 0,0 UV-I 11,6 C 18,1 C 2,6 km/h (1 Bft)
11.07.2014 08:00 13,1 C 24,0 C 15,2 C 18,9 C 18,9 C 5,8 C 93 % 92 % 100 % 1010,2 hPa 0,0 l/m 1,3 km/h (1 Bft) SW 225 5 min 0,0 UV-I 12,0 C 18,9 C 2,7 km/h (1 Bft)
11.07.2014 08:05 13,2 C 24,0 C 15,4 C 19,7 C 19,7 C 6,5 C 93 % 92 % 100 % 1010,2 hPa 0,0 l/m 1,1 km/h (1 Bft) S 180 5 min 0,0 UV-I 12,1 C 19,7 C 0,0 km/h (0 Bft)
11.07.2014 08:10 13,5 C 24,0 C 15,3 C 19,3 C 19,3 C 5,8 C 92 % 92 % 100 % 1010,2 hPa 0,0 l/m 0,5 km/h (0 Bft) S-SW 202 5 min 0,0 UV-I 12,2 C 19,3 C 0,0 km/h (0 Bft)
11.07.2014 08:15 13,4 C 24,0 C 15,5 C 19,3 C 19,3 C 5,9 C 92 % 92 % 100 % 1010,4 hPa 0,0 l/m 0,2 km/h (0 Bft) SW 225 5 min 0,0 UV-I 12,1 C 19,3 C 0,0 km/h (0 Bft)
11.07.2014 08:20 13,8 C 24,0 C 15,6 C 21,0 C 21,0 C 7,2 C 92 % 92 % 100 % 1010,4 hPa 0,0 l/m 0,2 km/h (0 Bft) S-SW 202 5 min 0,0 UV-I 12,5 C 21,0 C 3,1 km/h (1 Bft)
11.07.2014 08:25 14,1 C 24,0 C 15,6 C 21,1 C 21,1 C 7,0 C 92 % 92 % 100 % 1010,4 hPa 0,0 l/m 0,3 km/h (0 Bft) SW 225 5 min 0,0 UV-I 12,8 C 21,1 C 1,6 km/h (1 Bft)
11.07.2014 08:30 14,3 C 24,0 C 15,6 C 19,9 C 19,9 C 5,6 C 92 % 91 % 100 % 1010,4 hPa 0,0 l/m 0,5 km/h (0 Bft) S-SW 202 5 min 0,0 UV-I 13,0 C 19,9 C 0,0 km/h (0 Bft)
11.07.2014 08:35 14,3 C 24,0 C 15,6 C 19,3 C 19,3 C 5,0 C 92 % 91 % 100 % 1010,4 hPa 0,0 l/m 0,3 km/h (0 Bft) SO 135 5 min 0,0 UV-I 13,0 C 19,3 C 0,0 km/h (0 Bft)
11.07.2014 08:40 14,5 C 24,0 C 15,9 C 19,0 C 19,0 C 4,5 C 91 % 91 % 100 % 1010,4 hPa 0,0 l/m 0,3 km/h (0 Bft) W 270 5 min 0,0 UV-I 13,0 C 19,0 C 0,0 km/h (0 Bft)
11.07.2014 08:45 14,7 C 24,0 C 16,0 C 19,5 C 19,5 C 4,8 C 91 % 91 % 100 % 1010,4 hPa 0,0 l/m 0,3 km/h (0 Bft) W-SW 247 5 min 0,0 UV-I 13,2 C 19,5 C 0,0 km/h (0 Bft)
11.07.2014 08:50 15,0 C 24,0 C 16,0 C 21,0 C 21,0 C 6,0 C 91 % 91 % 100 % 1010,4 hPa 0,0 l/m 0,5 km/h (0 Bft) SW 225 5 min 0,0 UV-I 13,5 C 21,0 C 0,0 km/h (0 Bft)
11.07.2014 08:55 15,0 C 24,0 C 16,0 C 21,5 C 21,5 C 6,5 C 91 % 91 % 100 % 1010,3 hPa 0,0 l/m 0,6 km/h (0 Bft) S-SW 202 5 min 0,0 UV-I 13,5 C 21,5 C 0,0 km/h (0 Bft)
11.07.2014 09:00 15,6 C 24,0 C 16,1 C 24,1 C 24,1 C 8,5 C 91 % 91 % 100 % 1010,3 hPa 0,0 l/m 0,3 km/h (0 Bft) S 180 5 min 0,0 UV-I 14,1 C 24,1 C 0,0 km/h (0 Bft)
11.07.2014 09:05 16,1 C 24,0 C 16,2 C 25,5 C 25,5 C 9,4 C 91 % 91 % 100 % 1010,3 hPa 0,0 l/m 0,3 km/h (0 Bft) N 360 5 min 0,0 UV-I 14,6 C 25,5 C 0,0 km/h (0 Bft)
11.07.2014 09:10 16,5 C 24,0 C 16,4 C 27,1 C 27,1 C 10,6 C 89 % 91 % 100 % 1010,3 hPa 0,0 l/m 0,3 km/h (0 Bft) O-SO 112 5 min 0,0 UV-I 14,7 C 27,1 C 2,9 km/h (1 Bft)
11.07.2014 09:15 16,7 C 24,0 C 16,6 C 27,8 C 27,8 C 11,1 C 89 % 91 % 100 % 1010,6 hPa 0,0 l/m 0,3 km/h (0 Bft) S-SW 202 5 min 0,0 UV-I 14,9 C 27,8 C 0,0 km/h (0 Bft)
11.07.2014 09:20 17,2 C 24,0 C 16,8 C 28,6 C 28,6 C 11,4 C 88 % 91 % 100 % 1010,6 hPa 0,0 l/m 0,3 km/h (0 Bft) SW 225 5 min 0,0 UV-I 15,2 C 28,6 C 0,0 km/h (0 Bft)
11.07.2014 09:25 17,7 C 24,0 C 16,9 C 28,7 C 28,7 C 11,0 C 86 % 91 % 100 % 1010,6 hPa 0,0 l/m 0,5 km/h (0 Bft) W 270 5 min 0,0 UV-I 15,3 C 28,7 C 0,0 km/h (0 Bft)
11.07.2014 09:30 18,2 C 24,0 C 16,8 C 28,7 C 28,7 C 10,5 C 85 % 90 % 100 % 1010,6 hPa 0,0 l/m 1,1 km/h (1 Bft) SW 225 5 min 0,0 UV-I 15,6 C 28,7 C 2,3 km/h (1 Bft)
11.07.2014 09:35 18,4 C 24,0 C 16,9 C 28,4 C 28,4 C 10,0 C 84 % 90 % 100 % 1010,3 hPa 0,0 l/m 0,6 km/h (0 Bft) S-SO 157 5 min 0,0 UV-I 15,6 C 28,4 C 0,0 km/h (0 Bft)
11.07.2014 09:40 18,9 C 24,0 C 17,1 C 27,8 C 27,8 C 8,9 C 81 % 90 % 100 % 1010,3 hPa 0,0 l/m 1,0 km/h (0 Bft) SW 225 5 min 0,0 UV-I 15,6 C 27,8 C 6,0 km/h (2 Bft)
11.07.2014 09:45 18,8 C 24,0 C 17,1 C 27,6 C 27,6 C 8,8 C 80 % 90 % 100 % 1010,3 hPa 0,0 l/m 1,3 km/h (1 Bft) SW 225 5 min 0,0 UV-I 15,3 C 27,6 C 4,5 km/h (1 Bft)
11.07.2014 09:50 18,8 C 24,0 C 17,1 C 27,7 C 27,7 C 8,9 C 80 % 89 % 100 % 1010,3 hPa 0,0 l/m 1,1 km/h (1 Bft) SO 135 5 min 0,0 UV-I 15,3 C 27,7 C 0,0 km/h (0 Bft)
11.07.2014 09:55 18,9 C 24,0 C 17,2 C 28,3 C 28,3 C 9,4 C 80 % 89 % 100 % 1010,2 hPa 0,0 l/m 0,8 km/h (0 Bft) SW 225 5 min 0,0 UV-I 15,4 C 28,3 C 0,0 km/h (0 Bft)
11.07.2014 10:00 19,1 C 24,0 C 17,3 C 28,9 C 28,9 C 9,8 C 79 % 89 % 100 % 1010,2 hPa 0,0 l/m 0,3 km/h (0 Bft) W-SW 247 5 min 0,0 UV-I 15,4 C 28,9 C 0,0 km/h (0 Bft)
11.07.2014 10:05 19,1 C 24,0 C 17,4 C 29,3 C 29,3 C 10,2 C 79 % 89 % 100 % 1010,2 hPa 0,0 l/m 0,5 km/h (0 Bft) O-NO 67 5 min 0,0 UV-I 15,4 C 29,3 C 2,6 km/h (1 Bft)
11.07.2014 10:10 19,4 C 23,2 C 17,6 C 28,3 C 28,3 C 8,9 C 78 % 89 % 100 % 1010,2 hPa 0,0 l/m 0,6 km/h (0 Bft) W-SW 247 5 min 0,0 UV-I 15,5 C 28,3 C 4,0 km/h (1 Bft)
11.07.2014 10:15 19,5 C 23,2 C 17,7 C 28,5 C 28,5 C 9,0 C 78 % 89 % 100 % 1010,1 hPa 0,0 l/m 1,0 km/h (0 Bft) N 360 5 min 0,0 UV-I 15,6 C 28,5 C 0,0 km/h (0 Bft)
11.07.2014 10:20 19,5 C 23,3 C 17,7 C 29,0 C 29,0 C 9,5 C 78 % 89 % 100 % 1010,1 hPa 0,0 l/m 0,8 km/h (0 Bft) O-NO 67 5 min 0,0 UV-I 15,6 C 29,0 C 0,0 km/h (0 Bft)
11.07.2014 10:25 19,7 C 23,3 C 17,7 C 29,5 C 29,5 C 9,8 C 78 % 89 % 100 % 1010,1 hPa 0,0 l/m 0,6 km/h (0 Bft) SW 225 5 min 0,0 UV-I 15,8 C 29,5 C 3,5 km/h (1 Bft)
11.07.2014 10:30 19,7 C 23,3 C 17,8 C 29,6 C 29,6 C 9,9 C 78 % 89 % 100 % 1010,1 hPa 0,0 l/m 0,3 km/h (0 Bft) SO 135 5 min 0,0 UV-I 15,8 C 29,6 C 0,0 km/h (0 Bft)
11.07.2014 10:35 19,8 C 23,3 C 17,9 C 29,7 C 29,7 C 9,9 C 78 % 88 % 100 % 1009,8 hPa 0,0 l/m 1,1 km/h (1 Bft) W-SW 247 5 min 0,0 UV-I 15,8 C 29,7 C 3,7 km/h (1 Bft)
11.07.2014 10:40 20,0 C 23,2 C 18,1 C 29,7 C 29,7 C 9,7 C 78 % 89 % 100 % 1009,8 hPa 0,0 l/m 1,1 km/h (1 Bft) W 270 5 min 0,0 UV-I 16,0 C 29,7 C 1,8 km/h (1 Bft)
11.07.2014 10:45 20,2 C 23,2 C 18,2 C 29,7 C 29,7 C 9,5 C 78 % 89 % 100 % 1009,8 hPa 0,0 l/m 1,3 km/h (1 Bft) W-SW 247 5 min 0,0 UV-I 16,2 C 29,7 C 0,0 km/h (0 Bft)
11.07.2014 10:50 20,6 C 23,2 C 18,3 C 29,9 C 29,9 C 9,3 C 78 % 88 % 100 % 1009,8 hPa 0,0 l/m 0,8 km/h (0 Bft) SO 135 5 min 0,0 UV-I 16,6 C 29,9 C 0,0 km/h (0 Bft)
11.07.2014 10:55 20,8 C 23,2 C 18,4 C 30,1 C 30,1 C 9,3 C 78 % 88 % 100 % 1009,8 hPa 0,0 l/m 0,5 km/h (0 Bft) W-SW 247 5 min 0,0 UV-I 16,8 C 30,1 C 4,7 km/h (1 Bft)
11.07.2014 11:00 20,9 C 23,2 C 18,5 C 29,2 C 29,2 C 8,3 C 76 % 88 % 100 % 1009,8 hPa 0,0 l/m 2,4 km/h (1 Bft) W-SW 247 5 min 0,0 UV-I 16,5 C 29,2 C 5,3 km/h (1 Bft)
11.07.2014 11:05 20,9 C 23,2 C 18,6 C 29,0 C 29,0 C 8,1 C 77 % 88 % 100 % 1009,8 hPa 0,0 l/m 2,9 km/h (1 Bft) S-SW 202 5 min 0,0 UV-I 16,7 C 29,0 C 3,9 km/h (1 Bft)
11.07.2014 11:10 21,0 C 23,2 C 18,7 C 29,0 C 29,0 C 8,0 C 76 % 88 % 100 % 1009,8 hPa 0,0 l/m 1,9 km/h (1 Bft) W-SW 247 5 min 0,0 UV-I 16,6 C 29,0 C 0,0 km/h (0 Bft)
11.07.2014 11:15 21,0 C 23,2 C 18,8 C 29,5 C 29,5 C 8,5 C 76 % 88 % 100 % 1009,8 hPa 0,0 l/m 1,4 km/h (1 Bft) W-SW 247 5 min 0,0 UV-I 16,6 C 29,5 C 2,1 km/h (1 Bft)
11.07.2014 11:20 21,5 C 23,3 C 18,9 C 29,6 C 29,6 C 8,1 C 75 % 88 % 100 % 1009,8 hPa 0,0 l/m 1,1 km/h (1 Bft) S-SO 157 5 min 0,0 UV-I 16,9 C 29,6 C 3,2 km/h (1 Bft)
11.07.2014 11:25 21,6 C 23,3 C 19,1 C 29,6 C 29,6 C 8,0 C 75 % 88 % 100 % 1009,8 hPa 0,0 l/m 2,1 km/h (1 Bft) SW 225 5 min 0,0 UV-I 17,0 C 29,6 C 5,3 km/h (1 Bft)
11.07.2014 11:30 21,7 C 23,3 C 19,2 C 29,1 C 29,1 C 7,4 C 74 % 88 % 100 % 1009,8 hPa 0,0 l/m 2,6 km/h (1 Bft) S 180 5 min 0,0 UV-I 16,9 C 29,1 C 8,2 km/h (2 Bft)
11.07.2014 11:35 21,6 C 23,3 C 19,5 C 29,3 C 29,3 C 7,7 C 75 % 88 % 100 % 1009,5 hPa 0,0 l/m 1,8 km/h (1 Bft) S 180 5 min 0,0 UV-I 17,0 C 29,3 C 0,0 km/h (0 Bft)
11.07.2014 11:40 21,9 C 23,3 C 19,7 C 28,3 C 28,3 C 6,4 C 74 % 87 % 100 % 1009,5 hPa 0,0 l/m 2,1 km/h (1 Bft) O-NO 67 5 min 0,0 UV-I 17,0 C 28,3 C 0,0 km/h (0 Bft)
11.07.2014 11:45 21,9 C 23,3 C 19,7 C 27,1 C 27,1 C 5,2 C 73 % 87 % 100 % 1009,5 hPa 0,0 l/m 2,4 km/h (1 Bft) W-SW 247 5 min 0,0 UV-I 16,8 C 27,1 C 0,0 km/h (0 Bft)
11.07.2014 11:50 21,9 C 23,3 C 20,3 C 27,4 C 27,4 C 5,5 C 74 % 87 % 100 % 1009,5 hPa 0,0 l/m 1,8 km/h (1 Bft) S 180 5 min 0,0 UV-I 17,0 C 27,4 C 2,6 km/h (1 Bft)
11.07.2014 11:55 22,0 C 23,3 C 20,5 C 27,8 C 27,8 C 5,8 C 74 % 85 % 100 % 1009,4 hPa 0,0 l/m 2,1 km/h (1 Bft) N-NO 22 5 min 0,0 UV-I 17,1 C 27,8 C 3,5 km/h (1 Bft)
11.07.2014 12:00 22,2 C 23,3 C 20,7 C 27,0 C 27,0 C 4,8 C 73 % 84 % 100 % 1009,4 hPa 0,0 l/m 1,8 km/h (1 Bft) NW 315 5 min 0,0 UV-I 17,1 C 27,0 C 5,8 km/h (2 Bft)
11.07.2014 12:05 22,3 C 23,3 C 20,9 C 26,4 C 26,4 C 4,1 C 73 % 84 % 100 % 1009,4 hPa 0,0 l/m 1,6 km/h (1 Bft) NO 45 5 min 0,0 UV-I 17,2 C 26,4 C 0,0 km/h (0 Bft)
11.07.2014 12:10 22,5 C 23,3 C 21,3 C 27,9 C 27,9 C 5,4 C 73 % 83 % 100 % 1009,4 hPa 0,0 l/m 2,1 km/h (1 Bft) N 360 5 min 0,0 UV-I 17,4 C 27,9 C 2,9 km/h (1 Bft)
11.07.2014 12:15 22,7 C 23,3 C 21,3 C 28,1 C 28,1 C 5,4 C 72 % 83 % 100 % 1009,4 hPa 0,0 l/m 2,3 km/h (1 Bft) SW 225 5 min 0,0 UV-I 17,4 C 28,1 C 2,1 km/h (1 Bft)
11.07.2014 12:20 22,8 C 23,3 C 21,5 C 27,8 C 27,8 C 5,0 C 71 % 83 % 100 % 1009,4 hPa 0,0 l/m 3,2 km/h (1 Bft) NW 315 5 min 0,0 UV-I 17,3 C 27,8 C 4,3 km/h (1 Bft)
11.07.2014 12:25 23,0 C 23,4 C 21,5 C 27,3 C 27,3 C 4,3 C 72 % 83 % 100 % 1009,4 hPa 0,0 l/m 2,7 km/h (1 Bft) N 360 5 min 0,0 UV-I 17,7 C 27,3 C 2,3 km/h (1 Bft)
11.07.2014 12:30 23,2 C 23,4 C 21,6 C 27,8 C 27,8 C 4,6 C 72 % 83 % 100 % 1009,4 hPa 0,0 l/m 1,4 km/h (1 Bft) W-SW 247 5 min 0,0 UV-I 17,9 C 27,8 C 3,1 km/h (1 Bft)
11.07.2014 12:35 23,5 C 23,4 C 21,8 C 29,1 C 29,1 C 5,6 C 72 % 82 % 100 % 1009,1 hPa 0,0 l/m 1,9 km/h (1 Bft) SW 225 5 min 0,0 UV-I 18,2 C 29,1 C 8,4 km/h (2 Bft)
11.07.2014 12:40 23,6 C 23,4 C 21,9 C 28,9 C 28,9 C 5,3 C 70 % 82 % 100 % 1009,1 hPa 0,0 l/m 2,7 km/h (1 Bft) S-SW 202 5 min 0,0 UV-I 17,8 C 28,9 C 5,5 km/h (1 Bft)
11.07.2014 12:45 23,6 C 23,4 C 21,7 C 28,2 C 28,2 C 4,6 C 69 % 81 % 100 % 1009,1 hPa 0,0 l/m 2,9 km/h (1 Bft) S-SW 202 5 min 0,0 UV-I 17,6 C 28,2 C 4,5 km/h (1 Bft)
11.07.2014 12:50 23,7 C 23,5 C 22,0 C 28,3 C 28,3 C 4,6 C 69 % 80 % 100 % 1009,1 hPa 0,0 l/m 2,9 km/h (1 Bft) SW 225 5 min 0,0 UV-I 17,7 C 28,3 C 3,1 km/h (1 Bft)
11.07.2014 12:55 23,8 C 23,5 C 22,1 C 29,3 C 29,3 C 5,5 C 69 % 80 % 100 % 1008,9 hPa 0,0 l/m 2,1 km/h (1 Bft) S-SO 157 5 min 0,0 UV-I 17,8 C 29,3 C 0,0 km/h (0 Bft)
11.07.2014 13:00 24,5 C 23,5 C 22,3 C 30,6 C 30,6 C 6,1 C 68 % 79 % 100 % 1008,9 hPa 0,0 l/m 1,3 km/h (1 Bft) N-NW 337 5 min 0,1 UV-I 18,2 C 30,6 C 2,7 km/h (1 Bft)
11.07.2014 13:05 24,8 C 23,5 C 22,5 C 30,6 C 30,6 C 5,8 C 65 % 77 % 100 % 1008,9 hPa 0,0 l/m 1,3 km/h (1 Bft) O-SO 112 5 min 0,1 UV-I 17,8 C 30,6 C 2,1 km/h (1 Bft)
11.07.2014 13:10 25,1 C 23,5 C 22,9 C 31,4 C 31,4 C 6,3 C 65 % 76 % 100 % 1008,9 hPa 0,0 l/m 1,1 km/h (1 Bft) SO 135 5 min 0,1 UV-I 18,0 C 31,4 C 1,6 km/h (1 Bft)
11.07.2014 13:15 25,2 C 23,5 C 23,1 C 31,9 C 31,9 C 6,7 C 65 % 74 % 100 % 1008,7 hPa 0,0 l/m 1,4 km/h (1 Bft) O-SO 112 5 min 0,1 UV-I 18,1 C 31,9 C 4,0 km/h (1 Bft)
11.07.2014 13:20 25,3 C 23,5 C 23,1 C 31,6 C 31,6 C 6,3 C 63 % 74 % 100 % 1008,7 hPa 0,0 l/m 1,4 km/h (1 Bft) N 360 5 min 0,1 UV-I 17,7 C 31,6 C 0,0 km/h (0 Bft)
11.07.2014 13:25 25,3 C 23,5 C 23,1 C 31,1 C 31,1 C 5,8 C 63 % 74 % 100 % 1008,7 hPa 0,0 l/m 1,3 km/h (1 Bft) NW 315 5 min 0,1 UV-I 17,7 C 31,1 C 2,3 km/h (1 Bft)
11.07.2014 13:30 25,0 C 23,6 C 23,1 C 29,2 C 29,2 C 4,2 C 63 % 73 % 100 % 1008,7 hPa 0,0 l/m 1,9 km/h (1 Bft) SO 135 5 min 0,1 UV-I 17,5 C 29,2 C 0,0 km/h (0 Bft)
11.07.2014 13:35 24,9 C 23,6 C 23,1 C 28,7 C 28,7 C 3,8 C 63 % 73 % 100 % 1008,4 hPa 0,0 l/m 2,1 km/h (1 Bft) W-NW 292 5 min 0,0 UV-I 17,4 C 28,7 C 0,0 km/h (0 Bft)
11.07.2014 13:40 24,9 C 23,6 C 22,9 C 28,5 C 28,5 C 3,6 C 64 % 74 % 95 % 1008,4 hPa 0,0 l/m 1,3 km/h (1 Bft) W-SW 247 5 min 0,0 UV-I 17,6 C 28,5 C 2,1 km/h (1 Bft)
11.07.2014 13:45 24,8 C 23,6 C 22,7 C 28,4 C 28,4 C 3,6 C 64 % 74 % 95 % 1008,4 hPa 0,0 l/m 1,1 km/h (1 Bft) O 90 5 min 0,0 UV-I 17,5 C 28,4 C 2,6 km/h (1 Bft)
11.07.2014 13:50 24,7 C 23,7 C 22,6 C 27,7 C 27,7 C 3,0 C 64 % 74 % 79 % 1008,4 hPa 0,0 l/m 0,5 km/h (0 Bft) O-NO 67 0 min 0,0 UV-I 17,4 C 27,7 C 0,0 km/h (0 Bft)
11.07.2014 13:55 24,7 C 23,7 C 22,7 C 27,5 C 27,5 C 2,8 C 65 % 74 % 74 % 1008,1 hPa 0,0 l/m 0,3 km/h (0 Bft) SW 225 0 min 0,0 UV-I 17,7 C 27,5 C 2,1 km/h (1 Bft)
11.07.2014 14:00 24,7 C 23,7 C 22,7 C 27,3 C 27,3 C 2,6 C 63 % 74 % 68 % 1008,1 hPa 0,0 l/m 0,8 km/h (0 Bft) NW 315 0 min 0,0 UV-I 17,2 C 27,3 C 3,7 km/h (1 Bft)
11.07.2014 14:05 24,6 C 23,7 C 22,9 C 27,3 C 27,3 C 2,7 C 64 % 74 % 71 % 1008,1 hPa 0,0 l/m 1,0 km/h (0 Bft) N 360 0 min 0,0 UV-I 17,3 C 27,3 C 0,0 km/h (0 Bft)
11.07.2014 14:10 24,9 C 23,7 C 23,4 C 29,3 C 29,3 C 4,4 C 64 % 74 % 100 % 1008,1 hPa 0,0 l/m 1,1 km/h (1 Bft) NW 315 5 min 0,0 UV-I 17,6 C 29,3 C 3,7 km/h (1 Bft)
11.07.2014 14:15 25,0 C 23,7 C 23,7 C 30,0 C 30,0 C 5,0 C 64 % 73 % 100 % 1008,1 hPa 0,0 l/m 1,1 km/h (1 Bft) NW 315 5 min 0,0 UV-I 17,7 C 30,0 C 3,2 km/h (1 Bft)
11.07.2014 14:20 25,6 C 23,7 C 23,9 C 31,5 C 31,5 C 5,9 C 63 % 71 % 100 % 1008,1 hPa 0,0 l/m 1,9 km/h (1 Bft) W-NW 292 5 min 0,1 UV-I 18,0 C 31,5 C 2,7 km/h (1 Bft)
11.07.2014 14:25 25,8 C 23,7 C 23,7 C 31,3 C 31,3 C 5,5 C 61 % 73 % 100 % 1008,1 hPa 0,0 l/m 2,1 km/h (1 Bft) W-SW 247 5 min 0,1 UV-I 17,7 C 31,3 C 2,4 km/h (1 Bft)
11.07.2014 14:30 25,6 C 23,7 C 23,1 C 29,6 C 29,6 C 4,0 C 61 % 72 % 100 % 1008,1 hPa 0,0 l/m 1,1 km/h (1 Bft) W-NW 292 5 min 0,0 UV-I 17,5 C 29,6 C 2,3 km/h (1 Bft)
11.07.2014 14:35 25,6 C 23,7 C 23,1 C 28,9 C 28,9 C 3,3 C 61 % 73 % 87 % 1007,7 hPa 0,0 l/m 0,8 km/h (0 Bft) W-SW 247 5 min 0,0 UV-I 17,5 C 28,9 C 0,0 km/h (0 Bft)
11.07.2014 14:40 25,6 C 23,8 C 23,2 C 28,9 C 28,9 C 3,3 C 62 % 74 % 87 % 1007,7 hPa 0,0 l/m 0,8 km/h (0 Bft) W-SW 247 5 min 0,0 UV-I 17,8 C 28,9 C 3,7 km/h (1 Bft)
11.07.2014 14:45 26,1 C 23,8 C 23,4 C 30,2 C 30,2 C 4,1 C 60 % 73 % 100 % 1007,7 hPa 0,0 l/m 1,1 km/h (1 Bft) N-NO 22 5 min 0,0 UV-I 17,7 C 30,2 C 2,7 km/h (1 Bft)
11.07.2014 14:50 26,3 C 23,8 C 23,6 C 31,4 C 31,4 C 5,1 C 58 % 70 % 100 % 1007,7 hPa 0,0 l/m 1,6 km/h (1 Bft) S-SO 157 5 min 0,1 UV-I 17,4 C 31,4 C 1,8 km/h (1 Bft)
11.07.2014 14:55 26,3 C 23,8 C 23,7 C 31,8 C 31,8 C 5,5 C 59 % 69 % 100 % 1007,4 hPa 0,0 l/m 1,3 km/h (1 Bft) W-NW 292 5 min 0,1 UV-I 17,6 C 31,8 C 3,4 km/h (1 Bft)
11.07.2014 15:00 26,2 C 23,9 C 23,8 C 32,3 C 32,3 C 6,1 C 57 % 67 % 100 % 1007,4 hPa 0,0 l/m 1,1 km/h (1 Bft) NO 45 5 min 0,1 UV-I 17,0 C 32,3 C 1,6 km/h (1 Bft)
11.07.2014 15:05 26,2 C 23,9 C 23,9 C 32,3 C 32,3 C 6,1 C 56 % 67 % 100 % 1007,4 hPa 0,0 l/m 1,3 km/h (1 Bft) SO 135 5 min 0,1 UV-I 16,7 C 32,3 C 0,0 km/h (0 Bft)
11.07.2014 15:10 26,4 C 23,9 C 24,1 C 33,1 C 33,1 C 6,7 C 56 % 68 % 100 % 1007,4 hPa 0,0 l/m 0,8 km/h (0 Bft) O-NO 67 5 min 0,1 UV-I 16,9 C 33,1 C 2,4 km/h (1 Bft)
11.07.2014 15:15 26,3 C 23,9 C 23,9 C 33,1 C 33,1 C 6,8 C 56 % 68 % 100 % 1007,1 hPa 0,0 l/m 0,6 km/h (0 Bft) O-NO 67 5 min 0,1 UV-I 16,8 C 33,1 C 2,1 km/h (1 Bft)
11.07.2014 15:20 26,3 C 24,0 C 23,9 C 32,4 C 32,4 C 6,1 C 58 % 69 % 100 % 1007,1 hPa 0,0 l/m 0,6 km/h (0 Bft) W-SW 247 5 min 0,1 UV-I 17,4 C 32,4 C 2,3 km/h (1 Bft)
11.07.2014 15:25 26,6 C 24,0 C 23,9 C 32,9 C 32,9 C 6,3 C 58 % 70 % 100 % 1007,1 hPa 0,0 l/m 0,5 km/h (0 Bft) SO 135 5 min 0,1 UV-I 17,6 C 32,9 C 0,0 km/h (0 Bft)
11.07.2014 15:30 26,5 C 24,0 C 23,8 C 31,4 C 31,4 C 4,9 C 56 % 69 % 100 % 1007,1 hPa 0,0 l/m 0,6 km/h (0 Bft) O-SO 112 5 min 0,1 UV-I 17,0 C 31,4 C 0,0 km/h (0 Bft)
11.07.2014 15:35 26,4 C 24,0 C 23,7 C 30,6 C 30,6 C 4,2 C 56 % 69 % 100 % 1006,8 hPa 0,0 l/m 0,3 km/h (0 Bft) W-SW 247 5 min 0,1 UV-I 16,9 C 30,6 C 0,0 km/h (0 Bft)
11.07.2014 15:40 26,4 C 24,0 C 23,7 C 30,1 C 30,1 C 3,7 C 57 % 69 % 97 % 1006,8 hPa 0,0 l/m 0,3 km/h (0 Bft) NW 315 5 min 0,0 UV-I 17,2 C 30,1 C 2,3 km/h (1 Bft)
11.07.2014 15:45 26,3 C 24,0 C 23,9 C 29,8 C 29,8 C 3,5 C 57 % 69 % 92 % 1006,8 hPa 0,0 l/m 0,6 km/h (0 Bft) N-NO 22 5 min 0,0 UV-I 17,1 C 29,8 C 0,0 km/h (0 Bft)
11.07.2014 15:50 26,3 C 24,0 C 24,1 C 29,3 C 29,3 C 3,0 C 56 % 68 % 79 % 1006,8 hPa 0,0 l/m 1,4 km/h (1 Bft) W-NW 292 0 min 0,0 UV-I 16,8 C 29,3 C 3,5 km/h (1 Bft)
11.07.2014 15:55 26,2 C 24,0 C 24,1 C 28,9 C 28,9 C 2,7 C 57 % 68 % 71 % 1006,9 hPa 0,0 l/m 1,3 km/h (1 Bft) NW 315 0 min 0,0 UV-I 17,0 C 28,9 C 1,9 km/h (1 Bft)
11.07.2014 16:00 26,3 C 24,1 C 24,3 C 29,1 C 29,1 C 2,8 C 57 % 67 % 74 % 1006,9 hPa 0,0 l/m 1,6 km/h (1 Bft) W 270 0 min 0,0 UV-I 17,1 C 29,1 C 2,7 km/h (1 Bft)
11.07.2014 16:05 26,3 C 24,1 C 24,4 C 29,4 C 29,4 C 3,1 C 58 % 68 % 82 % 1006,9 hPa 0,0 l/m 1,3 km/h (1 Bft) S-SO 157 0 min 0,0 UV-I 17,4 C 29,4 C 0,0 km/h (0 Bft)
11.07.2014 16:10 26,6 C 24,1 C 24,4 C 30,7 C 30,7 C 4,1 C 57 % 67 % 100 % 1006,9 hPa 0,0 l/m 0,8 km/h (0 Bft) SO 135 5 min 0,0 UV-I 17,4 C 30,7 C 0,0 km/h (0 Bft)
11.07.2014 16:15 26,7 C 24,1 C 24,3 C 31,1 C 31,1 C 4,4 C 57 % 66 % 100 % 1006,4 hPa 0,0 l/m 0,5 km/h (0 Bft) W 270 5 min 0,0 UV-I 17,5 C 31,1 C 0,0 km/h (0 Bft)
11.07.2014 16:20 26,6 C 24,2 C 24,2 C 30,3 C 30,3 C 3,7 C 58 % 67 % 97 % 1006,4 hPa 0,0 l/m 0,6 km/h (0 Bft) O-SO 112 5 min 0,0 UV-I 17,6 C 30,3 C 1,9 km/h (1 Bft)
11.07.2014 16:25 26,4 C 24,2 C 24,2 C 29,4 C 29,4 C 3,0 C 56 % 66 % 79 % 1006,4 hPa 0,0 l/m 2,1 km/h (1 Bft) N 360 0 min 0,0 UV-I 16,9 C 29,4 C 14,3 km/h (3 Bft)
11.07.2014 16:30 25,3 C 24,2 C 23,5 C 26,8 C 26,8 C 1,5 C 57 % 66 % 39 % 1006,4 hPa 0,0 l/m 5,1 km/h (1 Bft) O-NO 67 0 min 0,0 UV-I 16,2 C 26,8 C 16,4 km/h (3 Bft)
11.07.2014 16:35 24,6 C 24,2 C 22,4 C 24,5 C 24,2 C 0,0 C 60 % 71 % 0 % 1007,9 hPa 0,0 l/m 9,5 km/h (2 Bft) O-NO 67 0 min 0,0 UV-I 16,3 C 24,2 C 13,7 km/h (3 Bft)
11.07.2014 16:40 21,6 C 24,2 C 20,7 C 21,4 C 21,0 C 0,0 C 71 % 77 % 0 % 1007,9 hPa 0,0 l/m 11,9 km/h (2 Bft) O-NO 67 0 min 0,0 UV-I 16,1 C 21,0 C 18,8 km/h (3 Bft)
11.07.2014 16:45 20,8 C 24,3 C 20,2 C 20,4 C 19,7 C 0,0 C 73 % 78 % 0 % 1007,9 hPa 0,0 l/m 9,3 km/h (2 Bft) O-NO 67 0 min 0,0 UV-I 15,8 C 19,7 C 2,7 km/h (1 Bft)
11.07.2014 16:50 20,3 C 24,4 C 19,9 C 19,7 C 18,4 C 0,0 C 74 % 79 % 0 % 1007,9 hPa 0,0 l/m 3,5 km/h (1 Bft) SO 135 0 min 0,0 UV-I 15,5 C 18,4 C 0,0 km/h (0 Bft)
11.07.2014 16:55 20,1 C 24,4 C 19,5 C 19,3 C 17,8 C 0,0 C 74 % 80 % 0 % 1007,8 hPa 0,0 l/m 1,3 km/h (1 Bft) O-NO 67 0 min 0,0 UV-I 15,3 C 17,8 C 2,1 km/h (1 Bft)
11.07.2014 17:00 19,5 C 24,5 C 19,0 C 18,7 C 17,2 C 0,0 C 76 % 81 % 0 % 1007,8 hPa 0,7 l/m 0,5 km/h (0 Bft) O-SO 112 0 min 0,0 UV-I 15,2 C 17,2 C 0,0 km/h (0 Bft)
11.07.2014 17:05 19,2 C 24,6 C 18,9 C 18,5 C 17,0 C 0,0 C 76 % 82 % 0 % 1007,8 hPa 0,0 l/m 0,5 km/h (0 Bft) O-NO 67 0 min 0,0 UV-I 14,9 C 17,0 C 3,1 km/h (1 Bft)
11.07.2014 17:10 18,8 C 24,7 C 18,4 C 18,1 C 16,8 C 0,0 C 78 % 83 % 0 % 1007,8 hPa 0,0 l/m 0,8 km/h (0 Bft) N 360 0 min 0,0 UV-I 14,9 C 16,8 C 0,0 km/h (0 Bft)
11.07.2014 17:15 18,7 C 24,6 C 18,2 C 18,1 C 16,8 C 0,0 C 79 % 84 % 0 % 1007,9 hPa 0,0 l/m 0,8 km/h (0 Bft) W 270 0 min 0,0 UV-I 15,0 C 16,8 C 2,1 km/h (1 Bft)
11.07.2014 17:20 18,7 C 24,7 C 18,3 C 18,1 C 16,8 C 0,0 C 80 % 84 % 0 % 1007,9 hPa 0,0 l/m 0,3 km/h (0 Bft) S 180 0 min 0,0 UV-I 15,2 C 16,8 C 0,0 km/h (0 Bft)
11.07.2014 17:25 18,6 C 24,7 C 18,3 C 18,0 C 16,9 C 0,0 C 81 % 85 % 0 % 1007,9 hPa 0,0 l/m 0,2 km/h (0 Bft) S-SW 202 0 min 0,0 UV-I 15,3 C 16,9 C 0,0 km/h (0 Bft)
11.07.2014 17:30 18,4 C 24,8 C 18,1 C 17,9 C 17,0 C 0,0 C 82 % 85 % 0 % 1007,9 hPa 0,0 l/m 0,0 km/h (0 Bft) O-SO 112 0 min 0,0 UV-I 15,3 C 17,0 C 0,0 km/h (0 Bft)
11.07.2014 17:35 18,5 C 24,8 C 18,0 C 18,0 C 17,0 C 0,0 C 82 % 86 % 0 % 1008,6 hPa 0,0 l/m 0,0 km/h (0 Bft) N-NO 22 0 min 0,0 UV-I 15,4 C 17,0 C 0,0 km/h (0 Bft)
11.07.2014 17:40 18,2 C 24,9 C 17,8 C 17,8 C 16,9 C 0,0 C 83 % 86 % 0 % 1008,6 hPa 0,0 l/m 0,0 km/h (0 Bft) O-SO 112 0 min 0,0 UV-I 15,3 C 16,9 C 0,0 km/h (0 Bft)
11.07.2014 17:45 18,1 C 24,8 C 17,9 C 17,7 C 16,9 C 0,0 C 83 % 87 % 0 % 1008,6 hPa 0,0 l/m 0,0 km/h (0 Bft) O 90 0 min 0,0 UV-I 15,2 C 16,9 C 0,0 km/h (0 Bft)
11.07.2014 17:50 17,8 C 24,9 C 17,6 C 17,5 C 16,8 C 0,0 C 83 % 86 % 0 % 1008,6 hPa 0,0 l/m 0,6 km/h (0 Bft) W-SW 247 0 min 0,0 UV-I 14,9 C 16,8 C 0,0 km/h (0 Bft)
11.07.2014 17:55 17,7 C 24,9 C 17,6 C 17,5 C 17,0 C 0,0 C 83 % 87 % 0 % 1008,9 hPa 0,0 l/m 0,6 km/h (0 Bft) O-NO 67 0 min 0,0 UV-I 14,8 C 17,0 C 0,0 km/h (0 Bft)
11.07.2014 18:00 17,5 C 24,9 C 17,6 C 17,3 C 17,0 C 0,0 C 84 % 87 % 0 % 1008,9 hPa 0,0 l/m 0,0 km/h (0 Bft) O 90 0 min 0,0 UV-I 14,8 C 17,0 C 0,0 km/h (0 Bft)
11.07.2014 18:05 17,4 C 24,9 C 17,7 C 17,3 C 17,1 C 0,0 C 84 % 87 % 0 % 1008,9 hPa 0,0 l/m 0,2 km/h (0 Bft) O-NO 67 0 min 0,0 UV-I 14,7 C 17,1 C 2,9 km/h (1 Bft)
11.07.2014 18:10 17,2 C 24,9 C 17,6 C 17,2 C 17,1 C 0,0 C 84 % 87 % 0 % 1008,9 hPa 0,0 l/m 0,3 km/h (0 Bft) NO 45 0 min 0,0 UV-I 14,5 C 17,1 C 0,0 km/h (0 Bft)
11.07.2014 18:15 17,2 C 24,9 C 17,7 C 17,3 C 17,3 C 0,1 C 84 % 87 % 3 % 1008,8 hPa 0,0 l/m 0,3 km/h (0 Bft) SO 135 0 min 0,0 UV-I 14,5 C 17,3 C 0,0 km/h (0 Bft)
11.07.2014 18:20 17,1 C 24,9 C 17,6 C 17,4 C 17,4 C 0,3 C 85 % 88 % 8 % 1008,8 hPa 0,0 l/m 0,0 km/h (0 Bft) O-NO 67 0 min 0,0 UV-I 14,6 C 17,4 C 0,0 km/h (0 Bft)
11.07.2014 18:25 17,1 C 24,9 C 17,6 C 17,6 C 17,6 C 0,5 C 85 % 88 % 13 % 1008,8 hPa 0,0 l/m 0,0 km/h (0 Bft) NO 45 0 min 0,0 UV-I 14,6 C 17,6 C 0,0 km/h (0 Bft)
11.07.2014 18:30 17,1 C 24,9 C 17,7 C 17,8 C 17,8 C 0,7 C 85 % 88 % 18 % 1008,8 hPa 0,0 l/m 0,0 km/h (0 Bft) N-NO 22 0 min 0,0 UV-I 14,6 C 17,8 C 0,0 km/h (0 Bft)
11.07.2014 18:35 17,1 C 24,9 C 17,7 C 17,9 C 17,9 C 0,8 C 85 % 88 % 21 % 1008,6 hPa 0,0 l/m 0,0 km/h (0 Bft) SW 225 0 min 0,0 UV-I 14,6 C 17,9 C 0,0 km/h (0 Bft)
11.07.2014 18:40 17,3 C 24,9 C 17,9 C 18,1 C 18,1 C 0,8 C 86 % 88 % 21 % 1008,6 hPa 0,0 l/m 0,0 km/h (0 Bft) W-SW 247 0 min 0,0 UV-I 14,9 C 18,1 C 0,0 km/h (0 Bft)
11.07.2014 18:45 17,2 C 24,9 C 17,8 C 18,2 C 18,2 C 1,0 C 86 % 88 % 26 % 1008,6 hPa 0,0 l/m 0,0 km/h (0 Bft) W-SW 247 0 min 0,0 UV-I 14,8 C 18,2 C 0,0 km/h (0 Bft)
11.07.2014 18:50 17,3 C 24,9 C 17,9 C 18,4 C 18,4 C 1,1 C 86 % 88 % 29 % 1008,6 hPa 0,0 l/m 0,0 km/h (0 Bft) O-NO 67 0 min 0,0 UV-I 14,9 C 18,4 C 0,0 km/h (0 Bft)
11.07.2014 18:55 17,4 C 24,9 C 17,9 C 18,5 C 18,5 C 1,1 C 86 % 88 % 29 % 1008,4 hPa 0,0 l/m 0,0 km/h (0 Bft) O-NO 67 0 min 0,0 UV-I 15,0 C 18,5 C 0,0 km/h (0 Bft)
11.07.2014 19:00 17,4 C 24,9 C 18,0 C 18,7 C 18,7 C 1,3 C 86 % 88 % 34 % 1008,4 hPa 0,0 l/m 0,0 km/h (0 Bft) S-SO 157 0 min 0,0 UV-I 15,0 C 18,7 C 0,0 km/h (0 Bft)
11.07.2014 19:05 17,5 C 24,9 C 18,0 C 18,9 C 18,9 C 1,4 C 86 % 88 % 37 % 1008,4 hPa 0,0 l/m 0,0 km/h (0 Bft) N 360 0 min 0,0 UV-I 15,1 C 18,9 C 0,0 km/h (0 Bft)
11.07.2014 19:10 17,6 C 24,9 C 18,1 C 19,0 C 19,0 C 1,4 C 86 % 88 % 37 % 1008,4 hPa 0,0 l/m 0,0 km/h (0 Bft) SW 225 0 min 0,0 UV-I 15,2 C 19,0 C 0,0 km/h (0 Bft)
11.07.2014 19:15 17,6 C 24,9 C 18,1 C 19,1 C 19,1 C 1,5 C 86 % 88 % 39 % 1008,3 hPa 0,0 l/m 0,0 km/h (0 Bft) O 90 0 min 0,0 UV-I 15,2 C 19,1 C 0,0 km/h (0 Bft)
11.07.2014 19:20 17,7 C 24,9 C 18,1 C 19,1 C 19,1 C 1,4 C 85 % 88 % 37 % 1008,3 hPa 0,0 l/m 0,0 km/h (0 Bft) SW 225 0 min 0,0 UV-I 15,1 C 19,1 C 1,8 km/h (1 Bft)
11.07.2014 19:25 17,9 C 24,9 C 18,1 C 19,0 C 19,0 C 1,1 C 85 % 88 % 29 % 1008,3 hPa 0,0 l/m 0,0 km/h (0 Bft) S 180 0 min 0,0 UV-I 15,3 C 19,0 C 0,0 km/h (0 Bft)
11.07.2014 19:30 17,9 C 24,9 C 18,1 C 19,0 C 19,0 C 1,1 C 85 % 88 % 29 % 1008,3 hPa 0,0 l/m 0,0 km/h (0 Bft) W 270 0 min 0,0 UV-I 15,3 C 19,0 C 0,0 km/h (0 Bft)
11.07.2014 19:35 17,9 C 24,9 C 18,1 C 18,9 C 18,9 C 1,0 C 85 % 88 % 26 % 1008,2 hPa 0,0 l/m 0,0 km/h (0 Bft) W-SW 247 0 min 0,0 UV-I 15,3 C 18,9 C 0,0 km/h (0 Bft)
11.07.2014 19:40 18,1 C 24,9 C 18,1 C 18,8 C 18,8 C 0,7 C 85 % 88 % 18 % 1008,2 hPa 0,0 l/m 0,0 km/h (0 Bft) S 180 0 min 0,0 UV-I 15,5 C 18,8 C 0,0 km/h (0 Bft)
11.07.2014 19:45 18,1 C 24,9 C 18,0 C 18,7 C 18,7 C 0,6 C 85 % 88 % 16 % 1008,2 hPa 0,0 l/m 0,2 km/h (0 Bft) W 270 0 min 0,0 UV-I 15,5 C 18,7 C 0,0 km/h (0 Bft)
11.07.2014 19:50 18,1 C 24,9 C 18,0 C 18,5 C 18,5 C 0,4 C 85 % 88 % 11 % 1008,2 hPa 0,0 l/m 0,2 km/h (0 Bft) S-SW 202 0 min 0,0 UV-I 15,5 C 18,5 C 0,0 km/h (0 Bft)
11.07.2014 19:55 18,0 C 24,9 C 18,0 C 18,5 C 18,5 C 0,5 C 85 % 88 % 13 % 1008,4 hPa 0,0 l/m 0,2 km/h (0 Bft) O-NO 67 0 min 0,0 UV-I 15,4 C 18,5 C 0,0 km/h (0 Bft)
11.07.2014 20:00 17,9 C 24,9 C 17,9 C 18,3 C 18,3 C 0,4 C 85 % 88 % 11 % 1008,4 hPa 0,0 l/m 0,0 km/h (0 Bft) O 90 0 min 0,0 UV-I 15,3 C 18,3 C 0,0 km/h (0 Bft)
11.07.2014 20:05 17,8 C 24,9 C 17,9 C 18,2 C 18,2 C 0,4 C 85 % 88 % 11 % 1008,4 hPa 0,0 l/m 0,0 km/h (0 Bft) O-NO 67 0 min 0,0 UV-I 15,2 C 18,2 C 0,0 km/h (0 Bft)
11.07.2014 20:10 17,8 C 24,9 C 17,9 C 18,1 C 18,1 C 0,3 C 85 % 88 % 8 % 1008,4 hPa 0,0 l/m 0,0 km/h (0 Bft) S 180 0 min 0,0 UV-I 15,2 C 18,1 C 0,0 km/h (0 Bft)
11.07.2014 20:15 17,7 C 24,9 C 17,9 C 18,0 C 18,0 C 0,3 C 85 % 89 % 8 % 1008,4 hPa 0,0 l/m 0,0 km/h (0 Bft) SW 225 0 min 0,0 UV-I 15,1 C 18,0 C 1,8 km/h (1 Bft)
11.07.2014 20:20 17,7 C 24,9 C 17,9 C 18,0 C 18,0 C 0,3 C 85 % 89 % 8 % 1008,4 hPa 0,0 l/m 0,2 km/h (0 Bft) NW 315 0 min 0,0 UV-I 15,1 C 18,0 C 2,4 km/h (1 Bft)
11.07.2014 20:25 17,6 C 24,8 C 17,8 C 17,8 C 17,8 C 0,2 C 86 % 89 % 5 % 1008,4 hPa 0,0 l/m 0,6 km/h (0 Bft) W-SW 247 0 min 0,0 UV-I 15,2 C 17,8 C 0,0 km/h (0 Bft)
11.07.2014 20:30 17,6 C 24,8 C 17,8 C 17,8 C 17,8 C 0,2 C 86 % 89 % 5 % 1008,4 hPa 0,0 l/m 1,0 km/h (0 Bft) W-SW 247 0 min 0,0 UV-I 15,2 C 17,8 C 0,0 km/h (0 Bft)
11.07.2014 20:35 17,6 C 24,8 C 17,7 C 17,7 C 17,7 C 0,1 C 86 % 89 % 3 % 1008,8 hPa 0,0 l/m 1,1 km/h (1 Bft) SW 225 0 min 0,0 UV-I 15,2 C 17,7 C 2,7 km/h (1 Bft)
11.07.2014 20:40 17,4 C 24,8 C 17,7 C 17,7 C 17,7 C 0,3 C 86 % 89 % 8 % 1008,8 hPa 0,0 l/m 1,8 km/h (1 Bft) W 270 0 min 0,0 UV-I 15,0 C 17,7 C 0,0 km/h (0 Bft)
11.07.2014 20:45 17,4 C 24,8 C 17,7 C 17,6 C 17,6 C 0,2 C 86 % 89 % 5 % 1008,8 hPa 0,0 l/m 1,8 km/h (1 Bft) SW 225 0 min 0,0 UV-I 15,0 C 17,6 C 2,7 km/h (1 Bft)
11.07.2014 20:50 17,3 C 24,8 C 17,6 C 17,6 C 17,6 C 0,3 C 86 % 89 % 8 % 1008,8 hPa 0,0 l/m 1,0 km/h (0 Bft) SW 225 0 min 0,0 UV-I 14,9 C 17,6 C 0,0 km/h (0 Bft)
11.07.2014 20:55 17,3 C 24,8 C 17,7 C 17,5 C 17,5 C 0,2 C 86 % 89 % 5 % 1008,9 hPa 0,0 l/m 1,1 km/h (1 Bft) S 180 0 min 0,0 UV-I 14,9 C 17,5 C 2,1 km/h (1 Bft)
11.07.2014 21:00 17,1 C 24,8 C 17,7 C 17,4 C 17,4 C 0,3 C 86 % 89 % 8 % 1008,9 hPa 0,0 l/m 1,0 km/h (0 Bft) W-SW 247 0 min 0,0 UV-I 14,7 C 17,4 C 1,9 km/h (1 Bft)
11.07.2014 21:05 17,1 C 24,8 C 17,6 C 17,4 C 17,4 C 0,3 C 86 % 89 % 8 % 1008,9 hPa 0,0 l/m 1,1 km/h (1 Bft) S 180 5 min 0,0 UV-I 14,7 C 17,4 C 0,0 km/h (0 Bft)
11.07.2014 21:10 17,1 C 24,8 C 17,5 C 17,4 C 17,4 C 0,3 C 86 % 89 % 0 % 1008,9 hPa 0,0 l/m 0,8 km/h (0 Bft) S-SW 202 0 min 0,0 UV-I 14,7 C 17,4 C 0,0 km/h (0 Bft)
11.07.2014 21:15 16,9 C 24,8 C 17,4 C 17,3 C 17,3 C 0,4 C 86 % 89 % 0 % 1008,8 hPa 0,0 l/m 0,6 km/h (0 Bft) S 180 0 min 0,0 UV-I 14,5 C 17,3 C 0,0 km/h (0 Bft)
11.07.2014 21:20 16,8 C 24,8 C 17,5 C 17,3 C 17,3 C 0,5 C 86 % 89 % 0 % 1008,8 hPa 0,0 l/m 0,5 km/h (0 Bft) S 180 0 min 0,0 UV-I 14,4 C 17,3 C 0,0 km/h (0 Bft)
11.07.2014 21:25 16,9 C 24,8 C 17,4 C 17,2 C 17,2 C 0,3 C 86 % 89 % 0 % 1008,8 hPa 0,0 l/m 0,0 km/h (0 Bft) S 180 0 min 0,0 UV-I 14,5 C 17,2 C 0,0 km/h (0 Bft)
11.07.2014 21:30 16,8 C 24,8 C 17,3 C 17,1 C 17,1 C 0,3 C 86 % 89 % 0 % 1008,8 hPa 0,0 l/m 0,0 km/h (0 Bft) W 270 0 min 0,0 UV-I 14,4 C 17,1 C 0,0 km/h (0 Bft)
11.07.2014 21:35 16,7 C 24,8 C 17,3 C 17,0 C 17,0 C 0,3 C 86 % 89 % 0 % 1008,9 hPa 0,0 l/m 0,0 km/h (0 Bft) SO 135 0 min 0,0 UV-I 14,3 C 17,0 C 0,0 km/h (0 Bft)
11.07.2014 21:40 16,7 C 24,8 C 17,2 C 16,8 C 16,8 C 0,1 C 86 % 89 % 0 % 1008,9 hPa 0,0 l/m 0,0 km/h (0 Bft) S-SO 157 0 min 0,0 UV-I 14,3 C 16,8 C 0,0 km/h (0 Bft)
11.07.2014 21:45 16,6 C 24,8 C 17,2 C 16,7 C 16,7 C 0,1 C 87 % 89 % 0 % 1008,9 hPa 0,0 l/m 0,0 km/h (0 Bft) N-NW 337 0 min 0,0 UV-I 14,4 C 16,7 C 0,0 km/h (0 Bft)
11.07.2014 21:50 16,5 C 24,9 C 17,1 C 16,5 C 16,5 C 0,0 C 87 % 89 % 0 % 1008,9 hPa 0,0 l/m 0,0 km/h (0 Bft) SO 135 0 min 0,0 UV-I 14,3 C 16,5 C 0,0 km/h (0 Bft)
11.07.2014 21:55 16,5 C 24,9 C 17,0 C 16,5 C 16,4 C 0,0 C 87 % 89 % 0 % 1009,2 hPa 0,0 l/m 0,0 km/h (0 Bft) SW 225 0 min 0,0 UV-I 14,3 C 16,4 C 0,0 km/h (0 Bft)
11.07.2014 22:00 16,3 C 24,9 C 16,8 C 16,3 C 16,2 C 0,0 C 87 % 89 % 0 % 1009,2 hPa 0,0 l/m 0,0 km/h (0 Bft) S 180 0 min 0,0 UV-I 14,1 C 16,2 C 0,0 km/h (0 Bft)
11.07.2014 22:05 16,3 C 24,9 C 16,7 C 16,2 C 16,0 C 0,0 C 87 % 89 % 0 % 1009,2 hPa 0,0 l/m 0,0 km/h (0 Bft) W 270 0 min 0,0 UV-I 14,1 C 16,0 C 0,0 km/h (0 Bft)
11.07.2014 22:10 16,2 C 24,9 C 16,7 C 16,1 C 15,8 C 0,0 C 87 % 89 % 0 % 1009,2 hPa 0,0 l/m 0,0 km/h (0 Bft) S-SO 157 0 min 0,0 UV-I 14,0 C 15,8 C 0,0 km/h (0 Bft)
11.07.2014 22:15 16,1 C 25,0 C 16,7 C 16,0 C 15,7 C 0,0 C 87 % 89 % 0 % 1009,1 hPa 0,0 l/m 0,0 km/h (0 Bft) O-SO 112 0 min 0,0 UV-I 13,9 C 15,7 C 0,0 km/h (0 Bft)
11.07.2014 22:20 16,0 C 25,0 C 16,4 C 15,9 C 15,6 C 0,0 C 86 % 89 % 0 % 1009,1 hPa 0,0 l/m 0,0 km/h (0 Bft) S-SW 202 0 min 0,0 UV-I 13,7 C 15,6 C 0,0 km/h (0 Bft)
11.07.2014 22:25 15,9 C 25,0 C 16,3 C 15,8 C 15,5 C 0,0 C 86 % 89 % 0 % 1009,1 hPa 0,0 l/m 0,0 km/h (0 Bft) SO 135 0 min 0,0 UV-I 13,6 C 15,5 C 0,0 km/h (0 Bft)
11.07.2014 22:30 15,9 C 25,0 C 16,3 C 15,7 C 15,3 C 0,0 C 86 % 89 % 0 % 1009,1 hPa 0,0 l/m 0,0 km/h (0 Bft) S-SW 202 0 min 0,0 UV-I 13,6 C 15,3 C 0,0 km/h (0 Bft)
11.07.2014 22:35 15,7 C 25,0 C 16,2 C 15,5 C 15,2 C 0,0 C 86 % 89 % 0 % 1009,2 hPa 0,0 l/m 0,0 km/h (0 Bft) S 180 0 min 0,0 UV-I 13,4 C 15,2 C 0,0 km/h (0 Bft)
11.07.2014 22:40 15,6 C 25,0 C 16,0 C 15,5 C 15,2 C 0,0 C 87 % 89 % 0 % 1009,2 hPa 0,0 l/m 0,0 km/h (0 Bft) O-NO 67 0 min 0,0 UV-I 13,4 C 15,2 C 0,0 km/h (0 Bft)
11.07.2014 22:45 15,5 C 25,0 C 16,0 C 15,4 C 15,2 C 0,0 C 87 % 90 % 0 % 1009,2 hPa 0,0 l/m 0,0 km/h (0 Bft) O-SO 112 0 min 0,0 UV-I 13,3 C 15,2 C 0,0 km/h (0 Bft)
11.07.2014 22:50 15,5 C 25,0 C 16,0 C 15,4 C 15,2 C 0,0 C 87 % 90 % 0 % 1009,2 hPa 0,0 l/m 0,0 km/h (0 Bft) S-SW 202 0 min 0,0 UV-I 13,3 C 15,2 C 0,0 km/h (0 Bft)
11.07.2014 22:55 15,4 C 25,0 C 16,0 C 15,3 C 15,1 C 0,0 C 87 % 90 % 0 % 1009,2 hPa 0,0 l/m 0,0 km/h (0 Bft) S-SO 157 0 min 0,0 UV-I 13,2 C 15,1 C 0,0 km/h (0 Bft)
11.07.2014 23:00 15,2 C 25,0 C 16,0 C 15,2 C 15,2 C 0,0 C 87 % 90 % 0 % 1009,2 hPa 0,0 l/m 0,0 km/h (0 Bft) O-NO 67 0 min 0,0 UV-I 13,0 C 15,2 C 0,0 km/h (0 Bft)
11.07.2014 23:05 15,3 C 25,0 C 16,0 C 15,3 C 15,2 C 0,0 C 87 % 90 % 0 % 1009,2 hPa 0,0 l/m 0,0 km/h (0 Bft) NO 45 0 min 0,0 UV-I 13,1 C 15,2 C 0,0 km/h (0 Bft)
11.07.2014 23:10 15,2 C 25,0 C 15,9 C 15,3 C 15,3 C 0,1 C 87 % 90 % 0 % 1009,2 hPa 0,0 l/m 0,0 km/h (0 Bft) O-NO 67 0 min 0,0 UV-I 13,0 C 15,3 C 0,0 km/h (0 Bft)
11.07.2014 23:15 15,1 C 25,0 C 16,0 C 15,3 C 15,3 C 0,2 C 88 % 90 % 0 % 1009,5 hPa 0,0 l/m 0,0 km/h (0 Bft) O 90 0 min 0,0 UV-I 13,1 C 15,3 C 0,0 km/h (0 Bft)
11.07.2014 23:20 15,0 C 25,0 C 15,9 C 15,3 C 15,3 C 0,3 C 88 % 90 % 0 % 1009,5 hPa 0,0 l/m 0,0 km/h (0 Bft) SO 135 0 min 0,0 UV-I 13,0 C 15,3 C 0,0 km/h (0 Bft)
11.07.2014 23:25 15,1 C 25,0 C 15,9 C 15,3 C 15,3 C 0,2 C 88 % 90 % 0 % 1009,5 hPa 0,0 l/m 0,0 km/h (0 Bft) N-NW 337 0 min 0,0 UV-I 13,1 C 15,3 C 1,6 km/h (1 Bft)
11.07.2014 23:30 15,1 C 25,0 C 15,9 C 15,3 C 15,3 C 0,2 C 89 % 90 % 0 % 1009,5 hPa 0,0 l/m 0,2 km/h (0 Bft) O-NO 67 0 min 0,0 UV-I 13,3 C 15,3 C 0,0 km/h (0 Bft)
11.07.2014 23:35 15,1 C 25,0 C 15,9 C 15,3 C 15,3 C 0,2 C 89 % 90 % 0 % 1009,3 hPa 0,0 l/m 0,2 km/h (0 Bft) N 360 0 min 0,0 UV-I 13,3 C 15,3 C 0,0 km/h (0 Bft)
11.07.2014 23:40 15,1 C 25,0 C 15,9 C 15,3 C 15,3 C 0,2 C 89 % 91 % 0 % 1009,3 hPa 0,0 l/m 0,0 km/h (0 Bft) NO 45 0 min 0,0 UV-I 13,3 C 15,3 C 0,0 km/h (0 Bft)
11.07.2014 23:45 15,0 C 25,0 C 15,9 C 15,3 C 15,3 C 0,3 C 89 % 91 % 0 % 1009,3 hPa 0,0 l/m 0,0 km/h (0 Bft) W-SW 247 0 min 0,0 UV-I 13,2 C 15,3 C 0,0 km/h (0 Bft)
11.07.2014 23:50 15,0 C 25,0 C 16,0 C 15,3 C 15,3 C 0,3 C 89 % 91 % 0 % 1009,3 hPa 0,0 l/m 0,0 km/h (0 Bft) NW 315 0 min 0,0 UV-I 13,2 C 15,3 C 0,0 km/h (0 Bft)
11.07.2014 23:55 15,0 C 25,0 C 15,9 C 15,3 C 15,3 C 0,3 C 89 % 91 % 0 % 1009,4 hPa 0,0 l/m 0,0 km/h (0 Bft) SW 225 0 min 0,0 UV-I 13,2 C 15,3 C 0,0 km/h (0 Bft)
_ Min-Zeit 04:50 10:10 05:15 04:40 04:40 01:00 15:05 16:15 00:00 16:15 - 00:00 - - - 00:00 04:50 04:40 00:00
Minimum _ 10,2 C 23,2 C 12,0 C 10,6 C 10,6 C 0,0 C 56 % 66 % 0 % 1006,4 hPa - 0,0 km/h (0 Bft) - - - 0,0 UV-I 8,6 C 10,6 C 0,0 km/h (0 Bft)
_ Max-Zeit 16:15 22:15 16:05 15:10 15:10 09:20 07:45 01:50 07:45 09:15 17:00 16:40 - - 05:25 13:00 13:00 15:10 16:40
Maximum _ 26,7 C 25,0 C 24,4 C 33,1 C 33,1 C 11,4 C 93 % 93 % 100 % 1010,6 hPa 0,7 l/m 11,9 km/h
O-NO (2 Bft)
- - 5 min 0,1 UV-I 18,2 C 33,1 C 18,8 km/h
O-NO (3 Bft)
Durchschnitt _ 16,9 C 24,2 C 17,0 C 19,4 C 19,3 C 2,5 C 82 % 87 % 41 % 1009,0 hPa #0,7 l/m 0,7 km/h (0 Bft) SW - #8:25 h 0,1 UV-I 13,6 C 19,3 C 1,0 km/h (0 Bft)
2014 www.wetterstation-wechselburg.de